createdAt,value
2018-07-17T00:00:07.816Z,81.50
2018-07-17T00:01:07.814Z,81.60
2018-07-17T00:02:07.821Z,81.40
2018-07-17T00:03:07.820Z,81.21
2018-07-17T00:04:07.814Z,81.60
2018-07-17T00:05:07.814Z,81.40
2018-07-17T00:06:07.822Z,81.21
2018-07-17T00:07:07.818Z,81.40
2018-07-17T00:08:07.819Z,81.50
2018-07-17T00:09:07.817Z,81.40
2018-07-17T00:10:07.813Z,80.92
2018-07-17T00:11:07.812Z,80.83
2018-07-17T00:12:07.812Z,80.83
2018-07-17T00:13:07.813Z,81.21
2018-07-17T00:14:07.816Z,81.50
2018-07-17T00:15:07.816Z,81.50
2018-07-17T00:16:07.819Z,81.65
2018-07-17T00:17:07.816Z,81.60
2018-07-17T00:18:07.811Z,81.56
2018-07-17T00:19:07.815Z,81.46
2018-07-17T00:20:07.817Z,82.52
2018-07-17T00:21:07.815Z,82.52
2018-07-17T00:22:07.810Z,82.52
2018-07-17T00:23:07.809Z,82.52
2018-07-17T00:24:07.809Z,82.32
2018-07-17T00:25:07.811Z,82.14
2018-07-17T00:26:07.816Z,82.71
2018-07-17T00:27:07.812Z,82.90
2018-07-17T00:28:07.812Z,82.81
2018-07-17T00:29:07.811Z,82.81
2018-07-17T00:30:07.806Z,82.71
2018-07-17T00:31:07.806Z,82.71
2018-07-17T00:32:07.813Z,82.52
2018-07-17T00:33:07.805Z,82.23
2018-07-17T00:34:07.809Z,83.00
2018-07-17T00:35:07.810Z,82.71
2018-07-17T00:36:07.804Z,82.42
2018-07-17T00:37:07.803Z,82.52
2018-07-17T00:38:07.808Z,82.23
2018-07-17T00:39:07.807Z,82.23
2018-07-17T00:40:07.807Z,82.23
2018-07-17T00:41:07.807Z,82.23
2018-07-17T00:42:07.801Z,82.52
2018-07-17T00:43:07.801Z,81.56
2018-07-17T00:44:07.801Z,81.27
2018-07-17T00:45:07.799Z,81.75
2018-07-17T00:46:07.804Z,82.61
2018-07-17T00:47:07.804Z,82.42
2018-07-17T00:48:07.803Z,81.46
2018-07-17T00:49:07.802Z,81.27
2018-07-17T00:50:07.798Z,81.70
2018-07-17T00:51:07.798Z,81.70
2018-07-17T00:52:07.802Z,81.56
2018-07-17T00:53:07.800Z,82.75
2018-07-17T00:54:07.796Z,82.23
2018-07-17T00:55:07.795Z,82.71
2018-07-17T00:56:07.795Z,82.27
2018-07-17T00:57:07.795Z,82.52
2018-07-17T00:58:07.799Z,82.42
2018-07-17T00:59:07.811Z,82.61
2018-07-17T01:00:07.799Z,82.75
2018-07-17T01:01:07.869Z,83.04
2018-07-17T01:02:07.793Z,82.75
2018-07-17T01:03:07.792Z,82.61
2018-07-17T01:04:07.791Z,82.52
2018-07-17T01:05:07.790Z,82.75
2018-07-17T01:06:07.795Z,83.00
2018-07-17T01:07:07.794Z,83.00
2018-07-17T01:08:07.791Z,82.52
2018-07-17T01:09:07.788Z,83.09
2018-07-17T01:10:07.793Z,82.90
2018-07-17T01:11:07.795Z,83.67
2018-07-17T01:12:07.794Z,83.00
2018-07-17T01:13:07.793Z,83.00
2018-07-17T01:14:07.788Z,82.23
2018-07-17T01:15:07.787Z,82.71
2018-07-17T01:16:07.786Z,83.58
2018-07-17T01:17:07.786Z,83.39
2018-07-17T01:18:07.790Z,83.48
2018-07-17T01:19:07.791Z,83.67
2018-07-17T01:20:07.788Z,83.67
2018-07-17T01:21:07.787Z,83.67
2018-07-17T01:22:07.783Z,83.48
2018-07-17T01:23:07.782Z,83.48
2018-07-17T01:24:07.786Z,83.58
2018-07-17T01:25:07.784Z,83.39
2018-07-17T01:26:07.780Z,83.48
2018-07-17T01:27:07.780Z,83.44
2018-07-17T01:28:07.779Z,84.21
2018-07-17T01:29:07.779Z,83.67
2018-07-17T01:30:07.783Z,83.63
2018-07-17T01:31:07.785Z,83.86
2018-07-17T01:32:07.783Z,83.96
2018-07-17T01:33:07.781Z,83.67
2018-07-17T01:34:07.777Z,84.21
2018-07-17T01:35:07.776Z,83.77
2018-07-17T01:36:07.776Z,83.77
2018-07-17T01:37:07.773Z,83.67
2018-07-17T01:38:07.779Z,83.53
2018-07-17T01:39:07.778Z,84.11
2018-07-17T01:40:07.772Z,83.73
2018-07-17T01:41:07.770Z,83.83
2018-07-17T01:42:07.775Z,84.40
2018-07-17T01:43:07.829Z,83.73
2018-07-17T01:44:07.773Z,84.30
2018-07-17T01:45:07.777Z,83.53
2018-07-17T01:46:07.767Z,83.83
2018-07-17T01:47:07.766Z,83.63
2018-07-17T01:48:07.766Z,84.30
2018-07-17T01:49:07.765Z,83.83
2018-07-17T01:50:07.768Z,84.11
2018-07-17T01:51:07.768Z,83.73
2018-07-17T01:52:07.769Z,83.73
2018-07-17T01:53:07.768Z,83.86
2018-07-17T01:54:07.762Z,83.67
2018-07-17T01:55:07.761Z,83.86
2018-07-17T01:56:07.767Z,83.86
2018-07-17T01:57:07.764Z,83.67
2018-07-17T01:58:07.760Z,84.06
2018-07-17T01:59:07.759Z,83.96
2018-07-17T02:00:07.759Z,84.16
2018-07-17T02:01:07.763Z,83.96
2018-07-17T02:02:07.760Z,84.16
2018-07-17T02:03:07.760Z,83.86
2018-07-17T02:04:07.763Z,83.77
2018-07-17T02:05:07.759Z,84.54
2018-07-17T02:06:07.755Z,84.16
2018-07-17T02:07:07.754Z,84.34
2018-07-17T02:08:07.754Z,83.29
2018-07-17T02:09:07.755Z,83.58
2018-07-17T02:10:07.757Z,84.54
2018-07-17T02:11:07.758Z,84.34
2018-07-17T02:12:07.752Z,84.34
2018-07-17T02:13:07.751Z,83.48
2018-07-17T02:14:07.755Z,84.16
2018-07-17T02:15:07.756Z,83.86
2018-07-17T02:16:07.754Z,83.77
2018-07-17T02:17:07.752Z,84.06
2018-07-17T02:18:07.748Z,83.86
2018-07-17T02:19:07.752Z,84.06
2018-07-17T02:20:07.748Z,83.96
2018-07-17T02:21:07.748Z,83.09
2018-07-17T02:22:07.750Z,84.16
2018-07-17T02:23:07.750Z,83.77
2018-07-17T02:24:07.751Z,83.09
2018-07-17T02:25:07.750Z,82.42
2018-07-17T02:26:07.744Z,81.37
2018-07-17T02:27:07.745Z,80.98
2018-07-17T02:28:07.749Z,80.25
2018-07-17T02:29:07.746Z,80.15
2018-07-17T02:30:07.742Z,79.48
2018-07-17T02:31:07.742Z,79.58
2018-07-17T02:32:07.741Z,80.06
2018-07-17T02:33:07.741Z,79.38
2018-07-17T02:34:07.746Z,79.58
2018-07-17T02:35:07.744Z,80.25
2018-07-17T02:36:07.743Z,79.96
2018-07-17T02:37:07.742Z,80.83
2018-07-17T02:38:07.745Z,81.60
2018-07-17T02:39:07.736Z,82.37
2018-07-17T02:40:07.735Z,81.79
2018-07-17T02:41:07.735Z,81.60
2018-07-17T02:42:07.794Z,81.50
2018-07-17T02:43:07.740Z,81.70
2018-07-17T02:44:07.735Z,81.60
2018-07-17T02:45:07.736Z,82.27
2018-07-17T02:46:07.737Z,81.79
2018-07-17T02:47:07.737Z,82.37
2018-07-17T02:48:07.736Z,82.27
2018-07-17T02:49:07.736Z,82.94
2018-07-17T02:50:07.732Z,82.27
2018-07-17T02:51:07.731Z,83.23
2018-07-17T02:52:07.730Z,83.33
2018-07-17T02:53:07.730Z,82.75
2018-07-17T02:54:07.732Z,83.04
2018-07-17T02:55:07.733Z,83.33
2018-07-17T02:56:07.737Z,84.06
2018-07-17T02:57:07.734Z,83.86
2018-07-17T02:58:07.728Z,83.77
2018-07-17T02:59:07.726Z,83.58
2018-07-17T03:00:07.730Z,83.29
2018-07-17T03:01:07.729Z,84.06
2018-07-17T03:02:07.724Z,83.34
2018-07-17T03:03:07.723Z,83.19
2018-07-17T03:04:07.723Z,83.00
2018-07-17T03:05:07.721Z,82.52
2018-07-17T03:06:07.728Z,82.23
2018-07-17T03:07:07.790Z,82.23
2018-07-17T03:08:07.725Z,82.23
2018-07-17T03:09:07.724Z,82.32
2018-07-17T03:10:07.718Z,81.27
2018-07-17T03:11:07.718Z,80.50
2018-07-17T03:12:07.718Z,80.02
2018-07-17T03:13:07.717Z,79.82
2018-07-17T03:14:07.721Z,79.58
2018-07-17T03:15:07.720Z,79.58
2018-07-17T03:16:07.717Z,79.67
2018-07-17T03:17:07.714Z,80.06
2018-07-17T03:18:07.724Z,81.21
2018-07-17T03:19:07.721Z,81.79
2018-07-17T03:20:07.716Z,81.70
2018-07-17T03:21:07.716Z,81.70
2018-07-17T03:22:07.710Z,81.79
2018-07-17T03:23:07.710Z,82.27
2018-07-17T03:24:07.709Z,81.50
2018-07-17T03:25:07.709Z,81.79
2018-07-17T03:26:07.712Z,81.70
2018-07-17T03:27:07.711Z,81.50
2018-07-17T03:28:07.717Z,82.27
2018-07-17T03:29:07.710Z,82.42
2018-07-17T03:30:07.706Z,81.50
2018-07-17T03:31:07.705Z,81.50
2018-07-17T03:32:07.710Z,80.44
2018-07-17T03:33:07.709Z,81.30
2018-07-17T03:34:07.704Z,81.50
2018-07-17T03:35:07.704Z,82.37
2018-07-17T03:36:07.703Z,82.37
2018-07-17T03:37:07.701Z,82.46
2018-07-17T03:38:07.706Z,82.56
2018-07-17T03:39:07.705Z,82.37
2018-07-17T03:40:07.706Z,83.04
2018-07-17T03:41:07.703Z,83.19
2018-07-17T03:42:07.698Z,82.56
2018-07-17T03:43:07.698Z,83.04
2018-07-17T03:44:07.698Z,82.56
2018-07-17T03:45:07.697Z,83.14
2018-07-17T03:46:07.706Z,83.14
2018-07-17T03:47:07.701Z,83.29
2018-07-17T03:48:07.696Z,83.48
2018-07-17T03:49:07.699Z,83.39
2018-07-17T03:50:07.698Z,83.48
2018-07-17T03:51:07.699Z,83.29
2018-07-17T03:52:07.699Z,83.39
2018-07-17T03:53:07.697Z,83.09
2018-07-17T03:54:07.692Z,82.61
2018-07-17T03:55:07.692Z,83.09
2018-07-17T03:56:07.691Z,81.94
2018-07-17T03:57:07.693Z,81.07
2018-07-17T03:58:07.693Z,81.37
2018-07-17T03:59:07.693Z,81.65
2018-07-17T04:00:07.693Z,82.23
2018-07-17T04:01:07.692Z,83.00
2018-07-17T04:02:07.686Z,83.19
2018-07-17T04:03:07.686Z,83.09
2018-07-17T04:04:07.694Z,83.00
2018-07-17T04:05:07.689Z,82.90
2018-07-17T04:06:07.685Z,82.32
2018-07-17T04:07:07.683Z,82.42
2018-07-17T04:08:07.683Z,82.90
2018-07-17T04:09:07.682Z,82.90
2018-07-17T04:10:07.688Z,83.00
2018-07-17T04:11:07.686Z,82.90
2018-07-17T04:12:07.686Z,82.61
2018-07-17T04:13:07.685Z,82.52
2018-07-17T04:14:07.678Z,83.09
2018-07-17T04:15:07.677Z,83.00
2018-07-17T04:16:07.677Z,83.09
2018-07-17T04:17:07.675Z,83.29
2018-07-17T04:18:07.679Z,83.00
2018-07-17T04:19:07.678Z,83.09
2018-07-17T04:20:07.677Z,83.48
2018-07-17T04:21:07.673Z,83.29
2018-07-17T04:22:07.677Z,83.48
2018-07-17T04:23:07.676Z,83.58
2018-07-17T04:24:07.677Z,83.19
2018-07-17T04:25:07.676Z,83.00
2018-07-17T04:26:07.669Z,83.09
2018-07-17T04:27:07.669Z,82.75
2018-07-17T04:28:07.669Z,82.56
2018-07-17T04:29:07.667Z,81.50
2018-07-17T04:30:07.671Z,81.60
2018-07-17T04:31:07.671Z,81.12
2018-07-17T04:32:07.670Z,81.40
2018-07-17T04:33:07.669Z,82.37
2018-07-17T04:34:07.664Z,81.60
2018-07-17T04:35:07.663Z,81.30
2018-07-17T04:36:07.670Z,81.21
2018-07-17T04:37:07.669Z,81.21
2018-07-17T04:38:07.665Z,82.79
2018-07-17T04:39:07.662Z,81.70
2018-07-17T04:40:07.663Z,81.50
2018-07-17T04:41:07.661Z,81.02
2018-07-17T04:42:07.666Z,81.02
2018-07-17T04:43:07.668Z,80.44
2018-07-17T04:44:07.739Z,81.12
2018-07-17T04:45:07.664Z,81.63
2018-07-17T04:46:07.658Z,81.63
2018-07-17T04:47:07.658Z,80.96
2018-07-17T04:48:07.659Z,80.87
2018-07-17T04:49:07.659Z,81.06
2018-07-17T04:50:07.663Z,80.96
2018-07-17T04:51:07.664Z,81.35
2018-07-17T04:52:07.658Z,81.83
2018-07-17T04:53:07.657Z,80.29
2018-07-17T04:54:07.662Z,79.81
2018-07-17T04:55:07.665Z,79.71
2018-07-17T04:56:07.661Z,80.29
2018-07-17T04:57:07.659Z,80.58
2018-07-17T04:58:07.658Z,81.06
2018-07-17T04:59:07.656Z,81.35
2018-07-17T05:00:07.655Z,81.68
2018-07-17T05:01:07.654Z,81.39
2018-07-17T05:02:07.660Z,81.39
2018-07-17T05:03:07.659Z,81.81
2018-07-17T05:04:07.661Z,80.94
2018-07-17T05:05:07.659Z,81.43
2018-07-17T05:06:07.657Z,80.46
2018-07-17T05:07:07.656Z,80.69
2018-07-17T05:08:07.662Z,80.02
2018-07-17T05:09:07.662Z,79.29
2018-07-17T05:10:07.660Z,79.00
2018-07-17T05:11:07.663Z,79.04
2018-07-17T05:12:07.661Z,78.79
2018-07-17T05:13:07.661Z,76.95
2018-07-17T05:14:07.668Z,76.12
2018-07-17T05:15:07.670Z,76.06
2018-07-17T05:16:07.671Z,74.85
2018-07-17T05:17:07.673Z,74.21
2018-07-17T05:18:07.671Z,72.69
2018-07-17T05:19:07.674Z,70.40
2018-07-17T05:20:07.692Z,68.50
2018-07-17T05:21:07.679Z,67.95
2018-07-17T05:22:07.688Z,66.69
2018-07-17T05:23:07.691Z,66.24
2018-07-17T05:24:07.689Z,64.65
2018-07-17T05:25:07.692Z,64.36
2018-07-17T05:26:07.704Z,62.84
2018-07-17T05:27:07.704Z,61.87
2018-07-17T05:28:07.708Z,62.00
2018-07-17T05:29:07.711Z,61.90
2018-07-17T05:30:07.711Z,61.02
2018-07-17T05:31:07.714Z,60.28
2018-07-17T05:32:07.720Z,59.69
2018-07-17T05:33:07.724Z,58.85
2018-07-17T05:34:07.732Z,58.39
2018-07-17T05:35:07.794Z,56.57
2018-07-17T05:36:07.743Z,55.82
2018-07-17T05:37:07.746Z,54.87
2018-07-17T05:38:07.756Z,54.80
2018-07-17T05:39:07.752Z,53.46
2018-07-17T05:40:07.762Z,52.58
2018-07-17T05:41:07.766Z,51.34
2018-07-17T05:42:07.767Z,51.56
2018-07-17T05:43:07.772Z,51.76
2018-07-17T05:44:07.777Z,51.61
2018-07-17T05:45:07.781Z,51.34
2018-07-17T05:46:07.793Z,50.10
2018-07-17T05:47:07.799Z,49.41
2018-07-17T05:48:07.806Z,48.04
2018-07-17T05:49:07.811Z,47.26
2018-07-17T05:50:07.812Z,46.67
2018-07-17T05:51:07.819Z,46.18
2018-07-17T05:52:07.827Z,45.62
2018-07-17T05:53:07.832Z,44.76
2018-07-17T05:54:07.848Z,44.29
2018-07-17T05:55:07.849Z,44.31
2018-07-17T05:56:07.852Z,44.02
2018-07-17T05:57:07.861Z,44.23
2018-07-17T05:58:07.870Z,43.35
2018-07-17T05:59:07.879Z,42.88
2018-07-17T06:00:07.887Z,42.41
2018-07-17T06:01:07.897Z,41.84
2018-07-17T06:02:07.896Z,41.17
2018-07-17T06:03:07.904Z,40.70
2018-07-17T06:04:07.916Z,40.51
2018-07-17T06:05:07.919Z,40.33
2018-07-17T06:06:07.933Z,39.84
2018-07-17T06:07:07.941Z,39.17
2018-07-17T06:08:07.950Z,39.09
2018-07-17T06:09:07.959Z,38.70
2018-07-17T06:10:07.964Z,38.81
2018-07-17T06:11:07.971Z,39.23
2018-07-17T06:12:07.985Z,38.64
2018-07-17T06:13:07.993Z,37.66
2018-07-17T06:14:07.999Z,37.78
2018-07-17T06:15:08.008Z,37.68
2018-07-17T06:16:08.018Z,37.11
2018-07-17T06:17:08.027Z,37.41
2018-07-17T06:18:08.043Z,36.34
2018-07-17T06:19:08.208Z,36.06
2018-07-17T06:20:08.062Z,35.57
2018-07-17T06:21:08.073Z,34.99
2018-07-17T06:22:08.194Z,34.79
2018-07-17T06:23:08.090Z,35.11
2018-07-17T06:24:08.099Z,34.71
2018-07-17T06:25:08.281Z,34.43
2018-07-17T06:26:08.125Z,34.13
2018-07-17T06:27:08.136Z,33.73
2018-07-17T06:28:08.144Z,33.24
2018-07-17T06:29:08.154Z,33.23
2018-07-17T06:30:08.171Z,33.11
2018-07-17T06:31:08.181Z,33.33
2018-07-17T06:32:08.196Z,33.67
2018-07-17T06:33:08.336Z,34.46
2018-07-17T06:34:08.260Z,35.05
2018-07-17T06:35:08.228Z,35.25
2018-07-17T06:36:08.237Z,35.53
2018-07-17T06:37:08.250Z,36.48
2018-07-17T06:38:08.267Z,37.24
2018-07-17T06:39:08.282Z,37.61
2018-07-17T06:40:08.290Z,38.68
2018-07-17T06:41:08.302Z,38.74
2018-07-17T06:42:08.310Z,39.31
2018-07-17T06:43:08.322Z,40.16
2018-07-17T06:44:08.338Z,40.82
2018-07-17T06:45:08.349Z,41.41
2018-07-17T06:46:08.359Z,42.24
2018-07-17T06:47:08.367Z,41.19
2018-07-17T06:48:08.379Z,40.23
2018-07-17T06:49:08.394Z,39.47
2018-07-17T06:50:08.449Z,39.25
2018-07-17T06:51:08.417Z,39.52
2018-07-17T06:52:08.429Z,40.17
2018-07-17T06:53:08.437Z,40.64
2018-07-17T06:54:08.445Z,41.11
2018-07-17T06:55:08.458Z,41.90
2018-07-17T06:56:08.467Z,42.66
2018-07-17T06:57:08.475Z,42.94
2018-07-17T06:58:08.490Z,43.80
2018-07-17T06:59:08.502Z,43.98
2018-07-17T07:00:08.506Z,45.52
2018-07-17T07:01:08.515Z,45.50
2018-07-17T07:02:08.529Z,46.75
2018-07-17T07:03:08.539Z,47.60
2018-07-17T07:04:08.549Z,48.24
2018-07-17T07:05:08.602Z,48.54
2018-07-17T07:06:08.557Z,49.58
2018-07-17T07:07:08.569Z,49.98
2018-07-17T07:08:08.575Z,51.12
2018-07-17T07:09:08.582Z,51.61
2018-07-17T07:10:08.594Z,51.78
2018-07-17T07:11:08.676Z,52.53
2018-07-17T07:12:08.610Z,53.60
2018-07-17T07:13:08.616Z,54.28
2018-07-17T07:14:08.619Z,54.55
2018-07-17T07:15:08.625Z,54.69
2018-07-17T07:16:08.643Z,55.76
2018-07-17T07:17:08.642Z,55.66
2018-07-17T07:18:08.645Z,56.41
2018-07-17T07:19:08.652Z,56.03
2018-07-17T07:20:08.657Z,56.20
2018-07-17T07:21:08.664Z,56.87
2018-07-17T07:22:08.674Z,57.26
2018-07-17T07:23:08.681Z,57.14
2018-07-17T07:24:08.687Z,57.62
2018-07-17T07:25:08.692Z,58.40
2018-07-17T07:26:08.759Z,58.37
2018-07-17T07:27:08.698Z,59.15
2018-07-17T07:28:08.704Z,59.18
2018-07-17T07:29:08.708Z,59.47
2018-07-17T07:30:08.721Z,59.67
2018-07-17T07:31:08.727Z,59.67
2018-07-17T07:32:08.729Z,59.95
2018-07-17T07:33:08.730Z,60.47
2018-07-17T07:34:08.740Z,60.08
2018-07-17T07:35:08.747Z,59.59
2018-07-17T07:36:08.752Z,59.41
2018-07-17T07:37:08.803Z,59.01
2018-07-17T07:38:08.758Z,59.14
2018-07-17T07:39:08.762Z,59.23
2018-07-17T07:40:08.769Z,58.75
2018-07-17T07:41:08.773Z,58.26
2018-07-17T07:42:08.784Z,57.49
2018-07-17T07:43:08.791Z,57.90
2018-07-17T07:44:08.794Z,57.42
2018-07-17T07:45:08.799Z,57.71
2018-07-17T07:46:08.799Z,56.74
2018-07-17T07:47:08.805Z,56.15
2018-07-17T07:48:08.818Z,56.27
2018-07-17T07:49:08.824Z,56.09
2018-07-17T07:50:08.824Z,56.64
2018-07-17T07:51:08.825Z,56.18
2018-07-17T07:52:08.834Z,56.37
2018-07-17T07:53:08.835Z,55.69
2018-07-17T07:54:08.846Z,55.82
2018-07-17T07:55:08.855Z,54.94
2018-07-17T07:56:08.860Z,54.28
2018-07-17T07:57:08.864Z,54.97
2018-07-17T07:58:08.868Z,54.19
2018-07-17T07:59:08.879Z,53.63
2018-07-17T08:00:08.876Z,53.63
2018-07-17T08:01:08.883Z,53.83
2018-07-17T08:02:08.893Z,53.63
2018-07-17T08:03:08.898Z,53.05
2018-07-17T08:04:08.901Z,53.14
2018-07-17T08:05:08.905Z,52.78
2018-07-17T08:06:08.920Z,52.58
2018-07-17T08:07:08.922Z,52.58
2018-07-17T08:08:08.930Z,51.86
2018-07-17T08:09:08.935Z,51.46
2018-07-17T08:10:08.936Z,50.90
2018-07-17T08:11:08.943Z,50.63
2018-07-17T08:12:09.019Z,49.33
2018-07-17T08:13:08.955Z,47.67
2018-07-17T08:14:08.968Z,45.28
2018-07-17T08:15:08.974Z,43.36
2018-07-17T08:16:08.982Z,43.01
2018-07-17T08:17:08.987Z,40.80
2018-07-17T08:18:08.992Z,38.89
2018-07-17T08:19:09.003Z,37.74
2018-07-17T08:20:09.016Z,36.88
2018-07-17T08:21:09.023Z,35.50
2018-07-17T08:22:09.033Z,34.94
2018-07-17T08:23:09.038Z,33.89
2018-07-17T08:24:09.051Z,32.33
2018-07-17T08:25:09.063Z,32.36
2018-07-17T08:26:09.078Z,31.48
2018-07-17T08:27:09.093Z,30.32
2018-07-17T08:28:09.103Z,30.04
2018-07-17T08:29:09.116Z,29.75
2018-07-17T08:30:09.124Z,29.28
2018-07-17T08:31:09.139Z,28.81
2018-07-17T08:32:09.153Z,28.40
2018-07-17T08:33:09.166Z,28.27
2018-07-17T08:34:09.186Z,28.28
2018-07-17T08:35:09.204Z,28.16
2018-07-17T08:36:09.211Z,28.67
2018-07-17T08:37:09.226Z,28.41
2018-07-17T08:38:09.250Z,27.51
2018-07-17T08:39:09.265Z,27.53
2018-07-17T08:40:09.278Z,26.34
2018-07-17T08:41:09.295Z,26.06
2018-07-17T08:42:09.311Z,25.97
2018-07-17T08:43:09.380Z,26.17
2018-07-17T08:44:09.343Z,26.17
2018-07-17T08:45:09.360Z,25.68
2018-07-17T08:46:09.380Z,25.49
2018-07-17T08:47:09.397Z,24.61
2018-07-17T08:48:09.414Z,24.45
2018-07-17T08:49:09.447Z,24.67
2018-07-17T08:50:09.444Z,24.48
2018-07-17T08:51:09.464Z,25.40
2018-07-17T08:52:09.485Z,25.48
2018-07-17T08:53:09.502Z,25.61
2018-07-17T08:54:09.517Z,24.41
2018-07-17T08:55:09.536Z,24.22
2018-07-17T08:56:09.553Z,24.13
2018-07-17T08:57:09.572Z,23.91
2018-07-17T08:58:09.597Z,24.52
2018-07-17T08:59:09.615Z,24.01
2018-07-17T09:00:09.636Z,24.02
2018-07-17T09:01:09.652Z,24.34
2018-07-17T09:02:09.668Z,24.03
2018-07-17T09:03:09.686Z,24.51
2018-07-17T09:04:09.709Z,23.62
2018-07-17T09:05:09.725Z,23.82
2018-07-17T09:06:09.750Z,24.48
2018-07-17T09:07:09.770Z,24.67
2018-07-17T09:08:09.785Z,24.86
2018-07-17T09:09:09.802Z,25.54
2018-07-17T09:10:09.829Z,26.40
2018-07-17T09:11:09.851Z,26.42
2018-07-17T09:12:09.869Z,25.82
2018-07-17T09:13:09.959Z,26.99
2018-07-17T09:14:09.899Z,27.48
2018-07-17T09:15:09.914Z,27.86
2018-07-17T09:16:09.934Z,27.95
2018-07-17T09:17:09.951Z,28.72
2018-07-17T09:18:09.970Z,29.90
2018-07-17T09:19:09.990Z,29.48
2018-07-17T09:20:10.008Z,29.77
2018-07-17T09:21:10.024Z,29.96
2018-07-17T09:22:10.035Z,29.60
2018-07-17T09:23:10.052Z,29.02
2018-07-17T09:24:10.072Z,28.62
2018-07-17T09:25:10.093Z,28.70
2018-07-17T09:26:10.099Z,27.99
2018-07-17T09:27:10.128Z,28.70
2018-07-17T09:28:10.154Z,29.41
2018-07-17T09:29:10.152Z,29.13
2018-07-17T09:30:10.168Z,28.26
2018-07-17T09:31:10.186Z,27.78
2018-07-17T09:32:10.200Z,27.42
2018-07-17T09:33:10.217Z,26.33
2018-07-17T09:34:10.229Z,25.72
2018-07-17T09:35:10.248Z,26.23
2018-07-17T09:36:10.263Z,25.63
2018-07-17T09:37:10.279Z,24.45
2018-07-17T09:38:10.301Z,25.17
2018-07-17T09:39:10.319Z,24.49
2018-07-17T09:40:10.332Z,23.79
2018-07-17T09:41:10.347Z,23.99
2018-07-17T09:42:10.371Z,24.46
2018-07-17T09:43:10.389Z,24.67
2018-07-17T09:44:10.415Z,24.30
2018-07-17T09:45:10.423Z,23.12
2018-07-17T09:46:10.437Z,22.84
2018-07-17T09:47:10.456Z,22.66
2018-07-17T09:48:10.474Z,22.46
2018-07-17T09:49:10.494Z,22.28
2018-07-17T09:50:10.514Z,21.60
2018-07-17T09:51:10.534Z,21.50
2018-07-17T09:52:10.558Z,20.59
2018-07-17T09:53:10.572Z,20.10
2018-07-17T09:54:10.601Z,19.88
2018-07-17T09:55:10.606Z,20.09
2018-07-17T09:56:10.633Z,20.00
2018-07-17T09:57:10.652Z,20.20
2018-07-17T09:58:10.666Z,20.21
2018-07-17T09:59:10.686Z,19.71
2018-07-17T10:00:10.707Z,19.21
2018-07-17T10:01:10.728Z,19.31
2018-07-17T10:02:10.753Z,19.40
2018-07-17T10:03:10.774Z,18.80
2018-07-17T10:04:10.796Z,19.10
2018-07-17T10:05:10.817Z,19.42
2018-07-17T10:06:10.833Z,19.30
2018-07-17T10:07:10.877Z,19.81
2018-07-17T10:08:10.876Z,19.19
2018-07-17T10:09:10.897Z,19.81
2018-07-17T10:10:10.923Z,18.70
2018-07-17T10:11:10.945Z,18.41
2018-07-17T10:12:10.964Z,17.71
2018-07-17T10:13:10.984Z,18.62
2018-07-17T10:14:11.012Z,17.50
2018-07-17T10:15:11.035Z,17.80
2018-07-17T10:16:11.056Z,18.32
2018-07-17T10:17:11.079Z,18.51
2018-07-17T10:18:11.097Z,18.51
2018-07-17T10:19:11.118Z,19.01
2018-07-17T10:20:11.166Z,19.12
2018-07-17T10:21:11.162Z,18.33
2018-07-17T10:22:11.191Z,17.12
2018-07-17T10:23:11.214Z,17.33
2018-07-17T10:24:11.239Z,17.20
2018-07-17T10:25:11.260Z,17.19
2018-07-17T10:26:11.317Z,17.59
2018-07-17T10:27:11.302Z,17.80
2018-07-17T10:28:11.326Z,18.00
2018-07-17T10:29:11.347Z,17.19
2018-07-17T10:30:11.366Z,17.29
2018-07-17T10:31:11.388Z,16.78
2018-07-17T10:32:11.438Z,16.67
2018-07-17T10:33:11.442Z,17.44
2018-07-17T10:34:11.460Z,17.76
2018-07-17T10:35:11.484Z,18.16
2018-07-17T10:36:11.512Z,18.46
2018-07-17T10:37:11.528Z,18.57
2018-07-17T10:38:11.547Z,18.18
2018-07-17T10:39:11.568Z,17.59
2018-07-17T10:40:11.591Z,17.99
2018-07-17T10:41:11.613Z,17.39
2018-07-17T10:42:11.638Z,17.99
2018-07-17T10:43:11.665Z,16.99
2018-07-17T10:44:11.680Z,16.88
2018-07-17T10:45:11.707Z,16.99
2018-07-17T10:46:11.729Z,17.19
2018-07-17T10:47:11.752Z,17.29
2018-07-17T10:48:11.775Z,17.27
2018-07-17T10:49:11.797Z,16.96
2018-07-17T10:50:11.814Z,17.84
2018-07-17T10:51:11.839Z,17.84
2018-07-17T10:52:11.861Z,18.26
2018-07-17T10:53:11.882Z,18.25
2018-07-17T10:54:11.909Z,18.14
2018-07-17T10:55:11.935Z,18.34
2018-07-17T10:56:11.955Z,18.34
2018-07-17T10:57:11.977Z,18.15
2018-07-17T10:58:11.995Z,18.55
2018-07-17T10:59:12.018Z,18.36
2018-07-17T11:00:12.046Z,17.35
2018-07-17T11:01:12.067Z,17.65
2018-07-17T11:02:12.084Z,17.73
2018-07-17T11:03:12.111Z,17.69
2018-07-17T11:04:12.129Z,18.16
2018-07-17T11:05:12.151Z,18.76
2018-07-17T11:06:12.177Z,19.85
2018-07-17T11:07:12.201Z,20.37
2018-07-17T11:08:12.224Z,20.47
2018-07-17T11:09:12.244Z,20.37
2018-07-17T11:10:12.262Z,20.29
2018-07-17T11:11:12.282Z,20.09
2018-07-17T11:12:12.304Z,20.09
2018-07-17T11:13:12.325Z,19.99
2018-07-17T11:14:12.353Z,19.48
2018-07-17T11:15:12.375Z,19.68
2018-07-17T11:16:12.391Z,19.20
2018-07-17T11:17:12.417Z,19.20
2018-07-17T11:18:12.442Z,18.80
2018-07-17T11:19:12.462Z,18.71
2018-07-17T11:20:12.485Z,19.51
2018-07-17T11:21:12.505Z,19.21
2018-07-17T11:22:12.521Z,18.30
2018-07-17T11:23:12.544Z,19.10
2018-07-17T11:24:12.565Z,18.98
2018-07-17T11:25:12.585Z,19.56
2018-07-17T11:26:12.612Z,19.85
2018-07-17T11:27:12.639Z,21.03
2018-07-17T11:28:12.657Z,21.50
2018-07-17T11:29:12.675Z,21.38
2018-07-17T11:30:12.693Z,21.56
2018-07-17T11:31:12.711Z,21.95
2018-07-17T11:32:12.735Z,22.72
2018-07-17T11:33:12.752Z,23.90
2018-07-17T11:34:12.766Z,23.99
2018-07-17T11:35:12.784Z,24.48
2018-07-17T11:36:12.802Z,24.37
2018-07-17T11:37:12.819Z,24.47
2018-07-17T11:38:12.848Z,24.36
2018-07-17T11:39:12.858Z,24.55
2018-07-17T11:40:12.875Z,25.32
2018-07-17T11:41:12.892Z,26.01
2018-07-17T11:42:12.903Z,26.09
2018-07-17T11:43:12.916Z,26.67
2018-07-17T11:44:12.932Z,26.77
2018-07-17T11:45:12.947Z,27.35
2018-07-17T11:46:12.964Z,26.75
2018-07-17T11:47:12.985Z,27.83
2018-07-17T11:48:12.992Z,28.33
2018-07-17T11:49:13.010Z,28.72
2018-07-17T11:50:13.018Z,28.62
2018-07-17T11:51:13.032Z,28.31
2018-07-17T11:52:13.047Z,28.31
2018-07-17T11:53:13.121Z,28.69
2018-07-17T11:54:13.066Z,28.50
2018-07-17T11:55:13.080Z,29.19
2018-07-17T11:56:13.092Z,29.28
2018-07-17T11:57:13.102Z,29.97
2018-07-17T11:58:13.120Z,29.17
2018-07-17T11:59:13.275Z,28.47
2018-07-17T12:00:13.145Z,28.65
2018-07-17T12:01:13.154Z,28.93
2018-07-17T12:02:13.161Z,29.52
2018-07-17T12:03:13.178Z,29.72
2018-07-17T12:04:13.187Z,30.31
2018-07-17T12:05:13.197Z,30.69
2018-07-17T12:06:13.204Z,30.38
2018-07-17T12:07:13.214Z,30.97
2018-07-17T12:08:13.224Z,30.77
2018-07-17T12:09:13.236Z,31.46
2018-07-17T12:10:13.250Z,31.16
2018-07-17T12:11:13.263Z,30.66
2018-07-17T12:12:13.271Z,31.95
2018-07-17T12:13:13.278Z,31.84
2018-07-17T12:14:13.284Z,31.64
2018-07-17T12:15:13.293Z,31.84
2018-07-17T12:16:13.304Z,32.43
2018-07-17T12:17:13.317Z,32.62
2018-07-17T12:18:13.327Z,32.84
2018-07-17T12:19:13.337Z,33.13
2018-07-17T12:20:13.421Z,33.53
2018-07-17T12:21:13.350Z,33.92
2018-07-17T12:22:13.363Z,33.43
2018-07-17T12:23:13.373Z,33.23
2018-07-17T12:24:13.381Z,31.95
2018-07-17T12:25:13.389Z,32.45
2018-07-17T12:26:13.394Z,31.95
2018-07-17T12:27:13.403Z,31.85
2018-07-17T12:28:13.414Z,31.84
2018-07-17T12:29:13.421Z,31.63
2018-07-17T12:30:13.436Z,32.43
2018-07-17T12:31:13.445Z,33.41
2018-07-17T12:32:13.453Z,33.13
2018-07-17T12:33:13.462Z,33.41
2018-07-17T12:34:13.467Z,33.33
2018-07-17T12:35:13.475Z,33.43
2018-07-17T12:36:13.489Z,33.23
2018-07-17T12:37:13.497Z,33.13
2018-07-17T12:38:13.502Z,33.23
2018-07-17T12:39:13.511Z,32.54
2018-07-17T12:40:13.519Z,32.84
2018-07-17T12:41:13.527Z,32.92
2018-07-17T12:42:13.540Z,32.92
2018-07-17T12:43:13.550Z,33.13
2018-07-17T12:44:13.574Z,33.62
2018-07-17T12:45:13.567Z,33.82
2018-07-17T12:46:13.571Z,33.33
2018-07-17T12:47:13.580Z,34.11
2018-07-17T12:48:13.589Z,33.62
2018-07-17T12:49:13.597Z,33.12
2018-07-17T12:50:13.611Z,33.29
2018-07-17T12:51:13.619Z,33.12
2018-07-17T12:52:13.623Z,33.31